createdAt,value
2023-02-11T00:03:43.907Z,71.88
2023-02-11T00:06:12.247Z,71.62
2023-02-11T00:08:40.646Z,72.14
2023-02-11T00:11:09.292Z,71.81
2023-02-11T00:13:38.675Z,71.86
2023-02-11T00:16:07.947Z,72.11
2023-02-11T00:18:36.537Z,72.15
2023-02-11T00:21:07.504Z,72.40
2023-02-11T00:23:35.404Z,72.98
2023-02-11T00:26:03.362Z,72.77
2023-02-11T00:28:31.419Z,72.33
2023-02-11T00:31:02.715Z,72.62
2023-02-11T00:33:30.878Z,72.79
2023-02-11T00:35:58.851Z,72.51
2023-02-11T00:38:26.817Z,73.01
2023-02-11T00:40:54.766Z,72.89
2023-02-11T00:43:22.861Z,73.09
2023-02-11T00:45:51.091Z,72.97
2023-02-11T00:48:20.852Z,72.63
2023-02-11T00:50:48.745Z,72.88
2023-02-11T00:53:16.812Z,72.87
2023-02-11T00:55:44.630Z,72.86
2023-02-11T00:58:12.615Z,72.75
2023-02-11T01:00:40.524Z,72.50
2023-02-11T01:03:08.472Z,72.95
2023-02-11T01:05:37.899Z,73.04
2023-02-11T01:08:06.080Z,72.65
2023-02-11T01:10:34.111Z,72.42
2023-02-11T01:13:02.677Z,72.40
2023-02-11T01:15:30.881Z,72.71
2023-02-11T01:17:58.813Z,72.34
2023-02-11T01:20:27.361Z,72.28
2023-02-11T01:22:56.708Z,72.60
2023-02-11T01:25:24.739Z,71.95
2023-02-11T01:27:53.287Z,72.50
2023-02-11T01:30:21.214Z,72.82
2023-02-11T01:32:49.247Z,72.78
2023-02-11T01:35:17.267Z,72.88
2023-02-11T01:37:45.333Z,72.65
2023-02-11T01:40:15.780Z,72.35
2023-02-11T01:42:44.224Z,72.67
2023-02-11T01:45:30.785Z,72.39
2023-02-11T01:47:58.845Z,72.23
2023-02-11T01:50:26.872Z,72.40
2023-02-11T01:53:14.998Z,72.15
2023-02-11T01:56:02.028Z,71.19
2023-02-11T01:58:30.303Z,70.98
2023-02-11T02:00:58.988Z,70.51
2023-02-11T02:03:27.326Z,69.71
2023-02-11T02:05:58.144Z,68.04
2023-02-11T02:08:32.308Z,68.22
2023-02-11T02:11:01.966Z,68.25
2023-02-11T02:13:31.770Z,67.63
2023-02-11T02:16:21.213Z,68.25
2023-02-11T02:18:53.469Z,67.78
2023-02-11T02:21:43.509Z,68.16
2023-02-11T02:24:32.807Z,68.04
2023-02-11T02:27:20.728Z,68.20
2023-02-11T02:30:15.482Z,68.30
2023-02-11T02:32:57.838Z,68.32
2023-02-11T02:35:29.738Z,67.97
2023-02-11T02:38:01.449Z,68.12
2023-02-11T02:40:32.370Z,68.07
2023-02-11T02:43:02.294Z,67.74
2023-02-11T02:45:30.296Z,67.46
2023-02-11T02:47:59.714Z,67.40
2023-02-11T02:50:30.405Z,67.17
2023-02-11T02:53:04.638Z,67.06
2023-02-11T02:55:38.657Z,67.48
2023-02-11T02:58:12.658Z,67.08
2023-02-11T03:00:44.340Z,67.16
2023-02-11T03:03:23.004Z,67.07
2023-02-11T03:05:54.758Z,66.76
2023-02-11T03:08:26.559Z,67.04
2023-02-11T03:10:55.652Z,66.75
2023-02-11T03:13:25.957Z,66.53
2023-02-11T03:15:56.529Z,66.77
2023-02-11T03:18:27.971Z,66.72
2023-02-11T03:20:57.718Z,67.00
2023-02-11T03:23:29.699Z,66.84
2023-02-11T03:25:59.550Z,66.80
2023-02-11T03:34:23.331Z,67.82
2023-02-11T03:36:53.334Z,68.19
2023-02-11T03:39:23.913Z,68.63
2023-02-11T03:41:53.218Z,69.09
2023-02-11T03:44:22.833Z,68.76
2023-02-11T03:46:53.160Z,68.64
2023-02-11T03:49:23.386Z,69.24
2023-02-11T03:51:52.652Z,69.45
2023-02-11T03:54:22.649Z,69.81
2023-02-11T03:56:53.870Z,69.92
2023-02-11T03:59:21.902Z,70.46
2023-02-11T04:01:50.325Z,70.22
2023-02-11T04:04:18.664Z,70.76
2023-02-11T04:06:48.196Z,70.16
2023-02-11T04:09:16.200Z,70.29
2023-02-11T04:11:44.380Z,70.81
2023-02-11T04:14:12.366Z,70.87
2023-02-11T04:16:40.446Z,71.17
2023-02-11T04:19:08.412Z,70.74
2023-02-11T04:21:39.767Z,70.47
2023-02-11T04:24:09.333Z,70.93
2023-02-11T04:26:37.388Z,70.90
2023-02-11T04:29:05.396Z,71.11
2023-02-11T04:31:33.370Z,70.91
2023-02-11T04:34:01.418Z,71.21
2023-02-11T04:36:29.568Z,70.65
2023-02-11T04:38:57.543Z,70.88
2023-02-11T04:41:26.968Z,71.02
2023-02-11T04:43:54.871Z,71.32
2023-02-11T04:46:23.016Z,70.92
2023-02-11T04:48:51.060Z,70.65
2023-02-11T04:51:19.101Z,70.75
2023-02-11T04:53:47.382Z,70.81
2023-02-11T04:56:15.473Z,70.53
2023-02-11T04:58:45.053Z,70.40
2023-02-11T05:01:14.521Z,70.36
2023-02-11T05:03:42.931Z,70.13
2023-02-11T05:06:11.855Z,69.79
2023-02-11T05:08:40.270Z,69.50
2023-02-11T05:11:09.169Z,69.21
2023-02-11T05:13:37.278Z,69.14
2023-02-11T05:16:07.055Z,69.17
2023-02-11T05:18:35.150Z,68.90
2023-02-11T05:21:07.128Z,68.62
2023-02-11T05:23:35.450Z,68.13
2023-02-11T05:26:03.638Z,68.19
2023-02-11T05:28:31.994Z,68.01
2023-02-11T05:31:00.242Z,68.02
2023-02-11T05:33:29.772Z,68.12
2023-02-11T05:35:59.661Z,68.02
2023-02-11T05:38:27.631Z,67.60
2023-02-11T05:40:55.868Z,67.89
2023-02-11T05:43:24.034Z,67.52
2023-02-11T05:45:52.478Z,67.83
2023-02-11T05:48:20.731Z,67.48
2023-02-11T05:50:50.206Z,67.15
2023-02-11T05:53:18.177Z,67.61
2023-02-11T05:55:46.366Z,67.38
2023-02-11T05:58:14.378Z,67.75
2023-02-11T06:00:42.677Z,67.81
2023-02-11T06:03:10.750Z,67.64
2023-02-11T06:05:38.911Z,67.47
2023-02-11T06:08:08.420Z,67.32
2023-02-11T06:10:36.627Z,68.08
2023-02-11T06:13:04.652Z,67.88
2023-02-11T06:15:32.822Z,67.99
2023-02-11T06:18:00.697Z,67.91
2023-02-11T06:20:29.088Z,67.69
2023-02-11T06:22:57.281Z,67.91
2023-02-11T06:25:26.950Z,67.52
2023-02-11T06:27:55.299Z,67.14
2023-02-11T06:30:23.406Z,67.15
2023-02-11T06:32:51.664Z,67.11
2023-02-11T06:35:19.948Z,67.31
2023-02-11T06:37:49.908Z,67.14
2023-02-11T06:40:17.948Z,66.78
2023-02-11T06:42:47.233Z,66.91
2023-02-11T06:45:15.479Z,66.87
2023-02-11T06:47:43.392Z,67.20
2023-02-11T06:50:13.471Z,67.05
2023-02-11T06:52:41.468Z,67.20
2023-02-11T06:55:09.742Z,66.29
2023-02-11T07:03:08.688Z,66.30
2023-02-11T07:05:38.792Z,65.96
2023-02-11T07:08:06.781Z,66.17
2023-02-11T07:10:35.338Z,65.44
2023-02-11T07:13:03.364Z,65.72
2023-02-11T07:15:31.486Z,64.98
2023-02-11T07:17:59.880Z,64.72
2023-02-11T07:20:29.409Z,64.72
2023-02-11T07:22:57.609Z,64.07
2023-02-11T07:25:25.666Z,64.22
2023-02-11T07:27:53.649Z,64.58
2023-02-11T07:30:21.724Z,64.09
2023-02-11T07:32:50.259Z,62.96
2023-02-11T07:35:18.327Z,63.12
2023-02-11T07:37:47.802Z,62.91
2023-02-11T07:40:15.785Z,63.52
2023-02-11T07:42:43.930Z,62.81
2023-02-11T07:45:12.766Z,61.79
2023-02-11T07:47:42.863Z,61.69
2023-02-11T07:50:11.151Z,61.70
2023-02-11T07:52:39.290Z,61.84
2023-02-11T07:55:10.221Z,61.08
2023-02-11T07:57:38.424Z,60.70
2023-02-11T08:00:07.161Z,61.02
2023-02-11T08:02:35.478Z,61.09
2023-02-11T08:05:03.576Z,60.85
2023-02-11T08:07:31.646Z,59.83
2023-02-11T08:09:59.720Z,59.56
2023-02-11T08:12:29.110Z,60.07
2023-02-11T08:14:57.162Z,59.93
2023-02-11T08:17:25.336Z,59.52
2023-02-11T08:19:53.514Z,59.67
2023-02-11T08:22:21.801Z,58.59
2023-02-11T08:24:52.321Z,58.95
2023-02-11T08:27:20.683Z,57.98
2023-02-11T08:29:50.091Z,58.55
2023-02-11T08:32:18.110Z,58.64
2023-02-11T08:34:46.353Z,58.63
2023-02-11T08:37:14.590Z,58.57
2023-02-11T08:39:42.599Z,58.63
2023-02-11T08:42:10.515Z,58.59
2023-02-11T08:44:38.744Z,59.12
2023-02-11T08:47:08.619Z,58.98
2023-02-11T08:49:36.704Z,58.97
2023-02-11T08:52:05.139Z,59.46
2023-02-11T08:54:33.590Z,59.63
2023-02-11T08:57:02.189Z,59.57
2023-02-11T08:59:30.207Z,59.92
2023-02-11T09:01:58.254Z,60.01
2023-02-11T09:04:27.925Z,60.09
2023-02-11T09:06:55.966Z,59.96
2023-02-11T09:09:24.436Z,59.77
2023-02-11T09:11:57.368Z,59.32
2023-02-11T09:14:26.306Z,59.27
2023-02-11T09:16:54.542Z,59.19
2023-02-11T09:19:23.278Z,59.34
2023-02-11T09:21:52.852Z,59.52
2023-02-11T09:24:20.718Z,59.54
2023-02-11T09:26:49.699Z,59.60
2023-02-11T09:29:18.133Z,58.85
2023-02-11T09:31:46.411Z,58.83
2023-02-11T09:34:16.147Z,59.05
2023-02-11T09:36:44.389Z,59.71
2023-02-11T09:39:15.698Z,59.93
2023-02-11T09:41:53.917Z,59.88
2023-02-11T09:44:23.775Z,60.53
2023-02-11T09:46:56.116Z,60.58
2023-02-11T09:49:26.607Z,60.92
2023-02-11T09:51:58.704Z,60.93
2023-02-11T09:54:32.200Z,61.43
2023-02-11T09:57:00.270Z,62.12
2023-02-11T09:59:28.208Z,62.14
2023-02-11T10:01:58.666Z,61.88
2023-02-11T10:04:38.024Z,62.42
2023-02-11T10:07:12.380Z,62.06
2023-02-11T10:09:50.879Z,62.74
2023-02-11T10:12:27.873Z,62.72
2023-02-11T10:15:10.591Z,62.76
2023-02-11T10:17:44.373Z,62.75
2023-02-11T10:22:59.197Z,62.51
2023-02-11T10:25:29.384Z,62.60
2023-02-11T10:27:59.324Z,62.71
2023-02-11T10:30:30.429Z,62.87
2023-02-11T10:33:01.859Z,62.73
2023-02-11T10:35:30.146Z,62.46
2023-02-11T10:37:58.433Z,62.18
2023-02-11T10:40:27.939Z,62.18
2023-02-11T10:42:59.525Z,62.05
2023-02-11T10:45:29.905Z,61.23
2023-02-11T10:47:59.557Z,60.89
2023-02-11T10:50:29.712Z,60.95
2023-02-11T10:53:12.864Z,60.99
2023-02-11T10:55:40.888Z,60.82
2023-02-11T10:58:24.660Z,60.74
2023-02-11T11:00:54.094Z,60.73
2023-02-11T11:03:23.249Z,60.41
2023-02-11T11:05:52.310Z,60.54
2023-02-11T11:08:20.975Z,60.46
2023-02-11T11:10:50.516Z,60.34
2023-02-11T11:13:30.534Z,59.66
2023-02-11T11:16:17.302Z,59.41
2023-02-11T11:18:46.282Z,59.49
2023-02-11T11:21:16.241Z,59.95
2023-02-11T11:23:49.579Z,59.92
2023-02-11T11:26:18.271Z,60.00
2023-02-11T11:28:54.877Z,58.95
2023-02-11T11:31:25.784Z,59.02
2023-02-11T11:33:55.707Z,59.02
2023-02-11T11:36:25.199Z,58.54
2023-02-11T11:38:55.785Z,58.57
2023-02-11T11:41:28.035Z,59.38
2023-02-11T11:43:58.472Z,59.41
2023-02-11T11:46:28.605Z,59.04
2023-02-11T11:48:59.957Z,58.57
2023-02-11T11:51:29.150Z,58.91
2023-02-11T11:54:00.152Z,59.41
2023-02-11T11:56:30.226Z,59.46
2023-02-11T11:59:02.079Z,59.75
2023-02-11T12:01:35.655Z,59.79
2023-02-11T12:04:21.549Z,59.97
2023-02-11T12:06:54.713Z,59.77
2023-02-11T12:09:28.170Z,60.07
2023-02-11T12:12:17.608Z,59.94
2023-02-11T12:14:51.234Z,60.34
2023-02-11T12:17:26.119Z,60.40
2023-02-11T12:19:59.521Z,60.14
2023-02-11T12:22:34.661Z,60.18
2023-02-11T12:25:11.243Z,60.32
2023-02-11T12:27:45.479Z,60.45
2023-02-11T12:30:24.207Z,61.25
2023-02-11T12:32:56.990Z,60.83
2023-02-11T12:35:32.789Z,60.99
2023-02-11T12:38:16.102Z,61.10
2023-02-11T12:40:46.428Z,61.29
2023-02-11T12:43:22.067Z,62.01
2023-02-11T12:46:04.939Z,61.57
2023-02-11T12:48:42.062Z,61.45
2023-02-11T12:51:15.513Z,61.81
2023-02-11T12:53:49.329Z,61.97
2023-02-11T12:56:20.842Z,62.52
2023-02-11T12:58:50.203Z,62.13
2023-02-11T13:01:22.385Z,62.42
2023-02-11T13:03:55.414Z,62.23
2023-02-11T13:06:26.281Z,62.40
2023-02-11T13:08:56.102Z,62.64
2023-02-11T13:11:25.894Z,62.44
2023-02-11T13:13:54.932Z,62.89
2023-02-11T13:16:29.750Z,62.98
2023-02-11T13:19:04.193Z,63.23
2023-02-11T13:21:49.902Z,63.43
2023-02-11T13:24:23.689Z,63.56
2023-02-11T13:26:56.229Z,63.85
2023-02-11T13:29:30.713Z,64.41
2023-02-11T13:32:07.406Z,64.31
2023-02-11T13:40:24.614Z,66.56
2023-02-11T13:42:53.384Z,66.37
2023-02-11T13:45:29.191Z,67.50
2023-02-11T13:47:58.324Z,67.10
2023-02-11T13:50:27.325Z,67.91
2023-02-11T13:52:59.686Z,68.30
2023-02-11T13:55:29.577Z,68.57
2023-02-11T13:58:12.390Z,69.19
2023-02-11T14:00:48.768Z,69.69
2023-02-11T14:03:48.165Z,69.82
2023-02-11T14:06:35.009Z,69.88
2023-02-11T14:09:09.130Z,70.21
2023-02-11T14:11:52.695Z,69.74
2023-02-11T14:14:24.047Z,70.40
2023-02-11T14:17:25.194Z,70.85
2023-02-11T14:19:53.825Z,69.90
2023-02-11T14:25:06.957Z,71.19
2023-02-11T14:27:42.830Z,71.20
2023-02-11T14:30:15.180Z,71.87
2023-02-11T14:32:49.920Z,71.52
2023-02-11T14:35:23.938Z,72.10
2023-02-11T14:37:57.082Z,71.79
2023-02-11T14:40:28.972Z,72.09
2023-02-11T14:42:59.518Z,71.89
2023-02-11T14:45:28.995Z,72.12
2023-02-11T14:48:02.922Z,71.73
2023-02-11T14:50:35.202Z,71.82
2023-02-11T14:53:06.374Z,72.16
2023-02-11T14:55:35.811Z,71.96
2023-02-11T14:58:14.714Z,72.23
2023-02-11T15:00:50.308Z,75.31
2023-02-11T15:03:32.461Z,75.72
2023-02-11T15:06:01.568Z,75.38
2023-02-11T15:08:39.607Z,74.84
2023-02-11T15:11:11.866Z,74.91
2023-02-11T15:13:48.158Z,74.74
2023-02-11T15:16:19.814Z,74.60
2023-02-11T15:18:49.612Z,73.97
2023-02-11T15:21:21.941Z,74.00
2023-02-11T15:23:56.779Z,73.90
2023-02-11T15:26:24.807Z,74.47
2023-02-11T15:28:54.327Z,74.12
2023-02-11T15:31:24.455Z,74.23
2023-02-11T15:33:53.119Z,74.02
2023-02-11T15:36:21.837Z,74.06
2023-02-11T15:39:04.726Z,74.31
2023-02-11T15:41:36.904Z,74.09
2023-02-11T15:44:06.435Z,74.49
2023-02-11T15:46:38.019Z,74.21
2023-02-11T15:49:08.096Z,74.38
2023-02-11T15:51:37.797Z,74.62
2023-02-11T15:54:07.303Z,74.63
2023-02-11T15:56:43.235Z,74.70
2023-02-11T15:59:16.701Z,74.60
2023-02-11T16:01:45.626Z,74.66
2023-02-11T16:04:20.742Z,74.36
2023-02-11T16:06:49.606Z,74.53
2023-02-11T16:09:25.282Z,74.68
2023-02-11T16:11:58.304Z,74.40
2023-02-11T16:14:31.584Z,74.39
2023-02-11T16:17:01.425Z,74.67
2023-02-11T16:19:29.932Z,74.40
2023-02-11T16:21:58.937Z,74.75
2023-02-11T16:24:29.224Z,74.72
2023-02-11T16:26:59.042Z,74.78
2023-02-11T16:29:28.197Z,75.11
2023-02-11T16:32:07.374Z,75.08
2023-02-11T16:34:35.798Z,75.41
2023-02-11T16:37:05.171Z,75.27
2023-02-11T16:39:33.337Z,75.78
2023-02-11T16:42:01.786Z,76.33
2023-02-11T16:44:30.275Z,75.95
2023-02-11T16:47:00.380Z,75.86
2023-02-11T16:49:29.363Z,76.49
2023-02-11T16:54:49.834Z,76.33
2023-02-11T16:57:19.413Z,76.02
2023-02-11T16:59:47.582Z,76.84
2023-02-11T17:02:18.178Z,76.57
2023-02-11T17:04:46.502Z,76.61
2023-02-11T17:07:14.624Z,76.62
2023-02-11T17:09:42.712Z,76.49
2023-02-11T17:12:10.584Z,76.67
2023-02-11T17:14:38.893Z,76.72
2023-02-11T17:17:06.902Z,76.93
2023-02-11T17:19:36.303Z,76.83
2023-02-11T17:22:04.449Z,76.75
2023-02-11T17:24:32.607Z,76.59
2023-02-11T17:27:00.623Z,76.98
2023-02-11T17:29:28.700Z,76.87
2023-02-11T17:31:57.257Z,76.89
2023-02-11T17:34:25.410Z,77.06
2023-02-11T17:36:54.921Z,77.09
2023-02-11T17:39:22.940Z,77.15
2023-02-11T17:41:51.008Z,76.80
2023-02-11T17:44:19.080Z,76.96
2023-02-11T17:46:47.160Z,77.15
2023-02-11T17:49:15.898Z,77.23
2023-02-11T17:51:43.956Z,77.18
2023-02-11T17:54:14.142Z,77.17
2023-02-11T17:56:42.664Z,76.89
2023-02-11T17:59:11.831Z,77.14
2023-02-11T18:01:40.750Z,77.18
2023-02-11T18:04:09.724Z,77.20
2023-02-11T18:06:37.770Z,77.21
2023-02-11T18:09:05.784Z,77.53
2023-02-11T18:11:36.082Z,77.35
2023-02-11T18:14:04.795Z,77.47
2023-02-11T18:16:35.164Z,77.13
2023-02-11T18:19:03.657Z,76.80
2023-02-11T18:21:31.647Z,76.98
2023-02-11T18:24:05.846Z,77.20
2023-02-11T18:26:36.509Z,77.05
2023-02-11T18:29:06.326Z,76.83
2023-02-11T18:31:35.463Z,77.04
2023-02-11T18:34:03.810Z,77.07
2023-02-11T18:36:31.934Z,76.70
2023-02-11T18:39:00.772Z,76.68
2023-02-11T18:41:28.988Z,76.92
2023-02-11T18:44:03.292Z,77.03
2023-02-11T18:46:31.849Z,76.65
2023-02-11T18:48:59.901Z,76.56
2023-02-11T18:51:28.022Z,76.91
2023-02-11T18:53:56.239Z,76.70
2023-02-11T18:56:24.797Z,76.65
2023-02-11T18:58:53.031Z,76.79
2023-02-11T19:01:24.605Z,76.91
2023-02-11T19:03:53.030Z,76.79
2023-02-11T19:06:22.569Z,77.20
2023-02-11T19:08:50.702Z,76.94
2023-02-11T19:11:19.972Z,76.88
2023-02-11T19:13:48.989Z,77.25
2023-02-11T19:16:20.090Z,76.95
2023-02-11T19:18:49.605Z,77.06
2023-02-11T19:21:17.540Z,76.97
2023-02-11T19:23:45.715Z,77.34
2023-02-11T19:26:13.632Z,77.45
2023-02-11T19:28:41.530Z,77.08
2023-02-11T19:31:10.237Z,77.25
2023-02-11T19:33:38.480Z,77.04
2023-02-11T19:36:09.848Z,77.32
2023-02-11T19:38:38.076Z,77.32
2023-02-11T19:41:06.402Z,77.26
2023-02-11T19:43:34.353Z,77.42
2023-02-11T19:46:02.807Z,76.92
2023-02-11T19:48:30.759Z,77.15
2023-02-11T19:50:58.857Z,77.37
2023-02-11T19:53:28.153Z,77.52
2023-02-11T19:55:56.117Z,77.88
2023-02-11T19:58:24.093Z,77.46
2023-02-11T20:00:52.084Z,77.71
2023-02-11T20:03:20.176Z,77.62
2023-02-11T20:05:54.754Z,77.94
2023-02-11T20:08:23.058Z,77.69
2023-02-11T20:10:52.558Z,77.93
2023-02-11T20:13:20.476Z,77.38
2023-02-11T20:15:48.351Z,77.57
2023-02-11T20:18:16.299Z,77.84
2023-02-11T20:20:44.261Z,77.30
2023-02-11T20:23:12.257Z,77.36
2023-02-11T20:25:40.902Z,77.48
2023-02-11T20:28:10.372Z,77.35
2023-02-11T20:30:39.659Z,77.13
2023-02-11T20:33:07.703Z,77.50
2023-02-11T20:35:35.625Z,77.47
2023-02-11T20:38:04.145Z,77.66
2023-02-11T20:40:32.162Z,77.58
2023-02-11T20:43:00.244Z,77.63
2023-02-11T20:45:29.655Z,77.61
2023-02-11T20:47:57.659Z,77.71
2023-02-11T20:50:25.715Z,77.64
2023-02-11T20:52:53.676Z,77.62
2023-02-11T20:55:21.748Z,77.33
2023-02-11T20:57:49.767Z,77.27
2023-02-11T21:00:18.540Z,77.25
2023-02-11T21:02:51.735Z,77.43
2023-02-11T21:05:19.815Z,77.38
2023-02-11T21:07:47.659Z,77.43
2023-02-11T21:10:15.556Z,77.43
2023-02-11T21:12:43.547Z,77.14
2023-02-11T21:15:12.761Z,77.46
2023-02-11T21:17:40.751Z,77.79
2023-02-11T21:20:10.821Z,77.49
2023-02-11T21:22:38.710Z,77.60
2023-02-11T21:25:07.146Z,77.25
2023-02-11T21:27:35.071Z,77.69
2023-02-11T21:30:03.213Z,77.33
2023-02-11T21:32:31.462Z,77.52
2023-02-11T21:35:02.086Z,77.75
2023-02-11T21:37:33.231Z,77.14
2023-02-11T21:40:01.136Z,77.63
2023-02-11T21:42:29.078Z,77.37
2023-02-11T21:44:56.947Z,77.53
2023-02-11T21:47:24.844Z,77.65
2023-02-11T21:49:52.803Z,77.64
2023-02-11T21:52:20.708Z,77.68
2023-02-11T21:54:52.122Z,77.83
2023-02-11T21:57:20.031Z,77.72
2023-02-11T21:59:48.047Z,77.92
2023-02-11T22:02:16.044Z,77.78
2023-02-11T22:04:44.061Z,77.67
2023-02-11T22:07:12.772Z,77.29
2023-02-11T22:09:40.873Z,77.62
2023-02-11T22:12:10.361Z,77.88
2023-02-11T22:14:38.604Z,77.69
2023-02-11T22:17:08.834Z,77.97
2023-02-11T22:19:36.817Z,77.58
2023-02-11T22:22:05.093Z,77.98
2023-02-11T22:24:33.059Z,78.49
2023-02-11T22:27:01.136Z,78.49
2023-02-11T22:29:30.417Z,78.27
2023-02-11T22:31:58.335Z,77.72
2023-02-11T22:34:26.263Z,78.06
2023-02-11T22:36:54.194Z,77.80
2023-02-11T22:39:22.146Z,77.97
2023-02-11T22:41:50.148Z,77.73
2023-02-11T22:44:21.755Z,77.82
2023-02-11T22:46:51.173Z,77.71
2023-02-11T22:49:20.093Z,77.51
2023-02-11T22:51:48.198Z,77.54
2023-02-11T22:54:16.998Z,77.38
2023-02-11T22:56:45.184Z,78.20
2023-02-11T22:59:15.033Z,78.05
2023-02-11T23:01:43.627Z,78.07
2023-02-11T23:04:14.358Z,77.34
2023-02-11T23:06:42.332Z,77.79
2023-02-11T23:09:12.510Z,77.81
2023-02-11T23:11:41.072Z,78.23
2023-02-11T23:14:12.251Z,78.19
2023-02-11T23:16:40.484Z,77.95
2023-02-11T23:19:09.969Z,78.41
2023-02-11T23:21:39.966Z,78.35
2023-02-11T23:24:09.084Z,78.60
2023-02-11T23:26:38.513Z,79.24
2023-02-11T23:29:06.547Z,78.44
2023-02-11T23:31:37.650Z,79.45
2023-02-11T23:34:05.853Z,79.50
2023-02-11T23:36:33.966Z,79.67
2023-02-11T23:39:03.684Z,79.02
2023-02-11T23:41:31.670Z,78.60
2023-02-11T23:44:00.325Z,79.22
2023-02-11T23:46:28.861Z,78.46
2023-02-11T23:48:57.540Z,78.38
2023-02-11T23:51:25.435Z,78.26
2023-02-11T23:53:56.091Z,78.06
2023-02-11T23:56:26.185Z,77.37
2023-02-11T23:58:55.058Z,76.71
